Terminal Aerodrome Forecast
Issued by NWS Tulsa, OK

Home | Current Version | Previous Version | Text Only | Print | Product List | Glossary On
Versions: 1 2 3 4 5 6 7 8 9 10 11 12 13
816
FTUS44 KTSA 131736
TAFFSM
TAF
KFSM 131736Z 1318/1418 08009KT P6SM SCT250
     FM140600 08010KT P6SM OVC050
     FM141200 08007KT P6SM OVC025
     FM141500 07008KT 5SM -DZ OVC007=

USA.gov is the U.S. government's official web portal to all federal, state and local government web resources and services.